Time;durP1;ratioP1;P1;durP2;ratioP2;P2;SDS_P1;SDS_P2;PMS_P1;PMS_P2;Temp;Humidity;BMP_temperature;BMP_pressure;BME280_temperature;BME280_humidity;BME280_pressure;Samples;Min_cycle;Max_cycle;Signal;HPM_P1;HPM_P2
2022/09/17 00:00:59;;;;;;;2.55;0.90;;;12.20;99.90;;;;;;5019329;28;20640;-63
2022/09/17 00:03:25;;;;;;;3.10;0.98;;;12.20;99.90;;;;;;5015587;28;20290;-63
2022/09/17 00:06:02;;;;;;;12.38;1.92;;;12.20;99.90;;;;;;5029146;28;20207;-64
2022/09/17 00:08:28;;;;;;;4.70;1.00;;;12.10;99.90;;;;;;5016540;28;20182;-64
2022/09/17 00:10:54;;;;;;;3.45;1.00;;;12.10;99.90;;;;;;5023286;28;20178;-64
2022/09/17 00:13:20;;;;;;;1.27;1.02;;;12.10;99.90;;;;;;5030274;28;20199;-64
2022/09/17 00:15:46;;;;;;;1.75;1.30;;;12.20;99.90;;;;;;5011843;28;20344;-64
2022/09/17 00:18:13;;;;;;;5.78;1.17;;;12.10;99.90;;;;;;5021386;28;20692;-64
2022/09/17 00:20:44;;;;;;;4.40;1.33;;;12.10;99.90;;;;;;5012084;28;20180;-64
2022/09/17 00:23:12;;;;;;;3.15;1.02;;;12.20;99.90;;;;;;5021315;28;20207;-64
2022/09/17 00:25:43;;;;;;;4.85;0.88;;;12.30;99.90;;;;;;5026271;28;20232;-64
2022/09/17 00:28:09;;;;;;;3.53;1.55;;;12.40;99.90;;;;;;5017001;28;20210;-64
2022/09/17 00:30:37;;;;;;;2.13;0.77;;;12.30;99.90;;;;;;5028565;28;20183;-64
2022/09/17 00:33:03;;;;;;;2.72;1.58;;;12.30;99.90;;;;;;5009776;28;20584;-64
2022/09/17 00:35:29;;;;;;;3.25;1.60;;;12.20;99.90;;;;;;5016110;28;20296;-64
2022/09/17 00:37:54;;;;;;;1.33;1.25;;;12.10;99.90;;;;;;5013969;28;20546;-64
2022/09/17 00:40:21;;;;;;;2.15;1.25;;;12.10;99.90;;;;;;5045061;28;20219;-64
2022/09/17 00:42:47;;;;;;;1.23;0.88;;;12.20;99.90;;;;;;5017437;28;20264;-65
2022/09/17 00:45:13;;;;;;;1.38;1.27;;;12.20;99.90;;;;;;5013498;28;20206;-64
2022/09/17 00:47:49;;;;;;;3.30;1.10;;;12.20;99.90;;;;;;5009234;28;20529;-65
2022/09/17 00:50:30;;;;;;;3.03;1.63;;;12.20;99.90;;;;;;5027547;28;20178;-64
2022/09/17 00:53:14;;;;;;;2.05;1.00;;;12.20;99.90;;;;;;5015397;28;20171;-65
2022/09/17 00:55:44;;;;;;;3.17;1.73;;;12.10;99.90;;;;;;5013591;28;20180;-64
2022/09/17 00:58:13;;;;;;;2.58;1.23;;;12.00;99.90;;;;;;5018081;28;20203;-64
2022/09/17 01:00:39;;;;;;;2.40;1.08;;;12.10;99.90;;;;;;5013168;28;20194;-64
2022/09/17 01:03:05;;;;;;;1.45;1.00;;;12.10;99.90;;;;;;5012979;28;20192;-64
2022/09/17 01:05:48;;;;;;;1.42;1.13;;;12.10;99.90;;;;;;5018999;28;20183;-64
2022/09/17 01:08:30;;;;;;;3.67;1.23;;;12.10;99.90;;;;;;5043941;28;20695;-64
2022/09/17 01:11:10;;;;;;;1.33;1.10;;;12.20;99.90;;;;;;5013607;28;20179;-63
2022/09/17 01:13:44;;;;;;;2.08;1.95;;;12.20;99.90;;;;;;5012452;28;20907;-64
2022/09/17 01:16:23;;;;;;;1.30;0.93;;;12.20;99.90;;;;;;5012813;28;20198;-64
2022/09/17 01:19:07;;;;;;;0.93;0.93;;;12.30;99.90;;;;;;5013350;28;20180;-64
2022/09/17 01:22:06;;;;;;;3.75;0.70;;;12.30;99.90;;;;;;5012695;28;20306;-64
2022/09/17 01:25:21;;;;;;;2.15;1.02;;;12.40;99.90;;;;;;5028009;28;20207;-64
2022/09/17 01:28:05;;;;;;;1.25;1.15;;;12.30;99.90;;;;;;5022691;28;20644;-64
2022/09/17 01:30:34;;;;;;;0.93;0.80;;;12.20;99.90;;;;;;5027398;28;20202;-65
2022/09/17 01:32:59;;;;;;;7.43;1.30;;;12.10;99.90;;;;;;5020287;28;20179;-64
2022/09/17 01:35:48;;;;;;;7.20;1.42;;;12.10;99.90;;;;;;5026861;28;20229;-65
2022/09/17 01:38:25;;;;;;;1.42;1.15;;;12.10;99.90;;;;;;5013109;28;20592;-64
2022/09/17 01:41:06;;;;;;;2.72;0.93;;;12.10;99.90;;;;;;5019610;28;20190;-64
2022/09/17 01:43:35;;;;;;;5.05;1.45;;;12.10;99.90;;;;;;5023018;28;20215;-64
2022/09/17 01:46:20;;;;;;;3.35;1.25;;;12.10;99.90;;;;;;5026975;28;20167;-64
2022/09/17 01:48:49;;;;;;;1.38;0.88;;;12.10;99.90;;;;;;5023560;28;20527;-64
2022/09/17 01:51:25;;;;;;;1.67;1.17;;;12.10;99.90;;;;;;5018663;28;20179;-64
2022/09/17 01:53:56;;;;;;;3.47;1.13;;;12.10;99.90;;;;;;5018398;28;20187;-64
2022/09/17 01:56:43;;;;;;;3.28;1.23;;;11.90;99.90;;;;;;5018406;28;20183;-64
2022/09/17 01:59:26;;;;;;;2.90;1.65;;;11.90;99.90;;;;;;5012729;28;20202;-64
2022/09/17 02:02:01;;;;;;;2.10;1.65;;;12.00;99.90;;;;;;5017483;28;20175;-64
2022/09/17 02:04:44;;;;;;;6.68;1.35;;;11.90;99.90;;;;;;5018762;28;20686;-64
2022/09/17 02:07:24;;;;;;;3.65;1.42;;;11.90;99.90;;;;;;5016199;28;20294;-64
2022/09/17 02:10:19;;;;;;;4.45;1.77;;;11.90;99.90;;;;;;5012787;28;20187;-63
2022/09/17 02:12:53;;;;;;;3.40;1.20;;;12.00;99.90;;;;;;5011679;28;20222;-64
2022/09/17 02:15:28;;;;;;;5.00;1.67;;;12.10;99.90;;;;;;5015019;28;20634;-64
2022/09/17 02:18:06;;;;;;;4.20;1.40;;;12.10;99.90;;;;;;5015968;28;20179;-64
2022/09/17 02:20:42;;;;;;;5.28;2.05;;;12.10;99.90;;;;;;5026102;28;20175;-64
2022/09/17 02:23:17;;;;;;;6.68;4.10;;;12.20;99.90;;;;;;5016841;28;20317;-64
2022/09/17 02:25:49;;;;;;;7.00;2.10;;;12.10;99.90;;;;;;5026048;28;20261;-64
2022/09/17 02:28:48;;;;;;;6.57;2.58;;;12.20;99.90;;;;;;5016953;28;20195;-64
2022/09/17 02:31:14;;;;;;;3.63;2.33;;;12.10;99.90;;;;;;5012663;28;20273;-64
2022/09/17 02:33:43;;;;;;;6.72;2.13;;;12.10;99.90;;;;;;5034986;28;20543;-64
2022/09/17 02:36:09;;;;;;;3.53;1.67;;;12.00;99.90;;;;;;5016017;28;20222;-64
2022/09/17 02:38:36;;;;;;;3.65;1.02;;;12.00;99.90;;;;;;5015016;28;20206;-64
2022/09/17 02:41:22;;;;;;;2.60;2.20;;;12.00;99.90;;;;;;5019871;28;20187;-64
2022/09/17 02:44:06;;;;;;;2.53;0.63;;;12.00;99.90;;;;;;5031074;28;20301;-64
2022/09/17 02:47:00;;;;;;;6.25;0.80;;;12.00;99.90;;;;;;5021012;28;20237;-64
2022/09/17 02:50:01;;;;;;;11.57;1.63;;;12.10;99.90;;;;;;5019997;28;20175;-63
2022/09/17 02:52:46;;;;;;;1.58;0.98;;;12.10;99.90;;;;;;5057477;28;20230;-64
2022/09/17 02:55:44;;;;;;;3.13;1.00;;;12.00;99.90;;;;;;5017647;28;20497;-63
2022/09/17 02:58:15;;;;;;;7.65;1.65;;;12.00;99.90;;;;;;5015807;28;20201;-64
2022/09/17 03:00:42;;;;;;;2.35;1.55;;;12.00;99.90;;;;;;5032541;28;20182;-64
2022/09/17 03:03:16;;;;;;;0.95;0.60;;;12.00;99.90;;;;;;5013746;28;20222;-63
2022/09/17 03:05:43;;;;;;;4.72;1.00;;;12.00;99.90;;;;;;5024864;28;20606;-63
2022/09/17 03:08:13;;;;;;;2.67;0.75;;;12.10;99.90;;;;;;5020561;28;20229;-64
2022/09/17 03:10:39;;;;;;;5.28;0.80;;;12.00;99.90;;;;;;5015871;28;20172;-64
2022/09/17 03:13:05;;;;;;;5.93;1.13;;;11.90;99.90;;;;;;5026569;28;20228;-64
2022/09/17 03:15:31;;;;;;;2.17;1.35;;;11.90;99.90;;;;;;5022206;28;20270;-63
2022/09/17 03:17:57;;;;;;;3.20;1.30;;;11.70;99.90;;;;;;5015807;28;20563;-64
2022/09/17 03:20:23;;;;;;;6.82;1.00;;;11.70;99.90;;;;;;5015840;28;20184;-64
2022/09/17 03:22:50;;;;;;;1.40;0.80;;;11.80;99.90;;;;;;5015724;28;20672;-64
2022/09/17 03:25:16;;;;;;;4.30;1.27;;;11.90;99.90;;;;;;5021948;28;20244;-64
2022/09/17 03:27:41;;;;;;;1.00;0.70;;;12.00;99.90;;;;;;5029686;28;20614;-64
2022/09/17 03:30:08;;;;;;;4.65;1.00;;;12.00;99.90;;;;;;5026181;28;20184;-64
2022/09/17 03:32:34;;;;;;;1.60;1.08;;;12.00;99.90;;;;;;5051359;28;20179;-63
2022/09/17 03:34:59;;;;;;;3.88;1.77;;;12.00;99.90;;;;;;5024518;28;20636;-64
2022/09/17 03:37:25;;;;;;;3.75;1.15;;;11.80;99.90;;;;;;5023343;28;20194;-63
2022/09/17 03:39:51;;;;;;;1.70;0.93;;;11.90;99.90;;;;;;5025681;28;20602;-64
2022/09/17 03:42:17;;;;;;;3.38;1.20;;;11.90;99.90;;;;;;5026745;28;20178;-64
2022/09/17 03:44:42;;;;;;;7.05;1.35;;;11.90;99.90;;;;;;5027674;28;20245;-64
2022/09/17 03:47:08;;;;;;;6.43;1.67;;;11.90;99.90;;;;;;5016868;28;20595;-64
2022/09/17 03:49:34;;;;;;;9.13;1.73;;;11.90;99.90;;;;;;5028764;28;20274;-64
2022/09/17 03:51:59;;;;;;;4.85;1.20;;;11.80;99.90;;;;;;5019944;28;20198;-64
2022/09/17 03:54:25;;;;;;;5.45;1.48;;;11.80;99.90;;;;;;5021076;28;20266;-64
2022/09/17 03:56:51;;;;;;;3.13;1.33;;;11.80;99.90;;;;;;5029716;28;20237;-64
2022/09/17 03:59:16;;;;;;;1.35;1.25;;;11.70;99.90;;;;;;5026252;28;20187;-64
2022/09/17 04:01:42;;;;;;;2.65;1.00;;;11.70;99.90;;;;;;5022687;28;20183;-64
2022/09/17 04:04:08;;;;;;;2.88;1.40;;;11.60;99.90;;;;;;5020888;28;20210;-64
2022/09/17 04:06:34;;;;;;;3.78;1.27;;;11.60;99.90;;;;;;5026270;28;20186;-64
2022/09/17 04:08:59;;;;;;;4.00;1.10;;;11.50;99.90;;;;;;5014123;28;20191;-64
2022/09/17 04:11:26;;;;;;;5.28;1.60;;;11.50;99.90;;;;;;5019525;28;20195;-64
2022/09/17 04:13:51;;;;;;;2.93;2.27;;;11.60;99.90;;;;;;5030804;28;20194;-63
2022/09/17 04:16:17;;;;;;;1.63;1.45;;;11.60;99.90;;;;;;5027373;28;20194;-63
2022/09/17 04:18:43;;;;;;;4.47;1.37;;;11.60;99.90;;;;;;5015414;28;20225;-64
2022/09/17 04:21:08;;;;;;;4.93;1.85;;;11.50;99.90;;;;;;5045730;28;20587;-63
2022/09/17 04:23:34;;;;;;;6.25;1.30;;;11.50;99.90;;;;;;5015612;28;20294;-63
2022/09/17 04:26:00;;;;;;;3.03;1.73;;;11.50;99.90;;;;;;5058053;28;20267;-64
2022/09/17 04:28:25;;;;;;;5.73;1.40;;;11.50;99.90;;;;;;5021835;28;20594;-63
2022/09/17 04:30:51;;;;;;;2.73;1.00;;;11.40;99.90;;;;;;5013571;28;20660;-64
2022/09/17 04:33:16;;;;;;;6.90;1.30;;;11.50;99.90;;;;;;5014873;28;20641;-62
2022/09/17 04:35:42;;;;;;;2.77;1.30;;;11.40;99.90;;;;;;5013808;28;20198;-63
2022/09/17 04:38:08;;;;;;;3.17;1.20;;;11.40;99.90;;;;;;5022302;28;20191;-63
2022/09/17 04:40:34;;;;;;;4.75;1.40;;;11.30;99.90;;;;;;5014364;28;20186;-63
2022/09/17 04:43:01;;;;;;;4.17;1.07;;;11.40;99.90;;;;;;5022435;28;20659;-65
2022/09/17 04:45:29;;;;;;;5.13;1.48;;;11.30;99.90;;;;;;5011722;28;20294;-67
2022/09/17 04:47:55;;;;;;;3.95;1.75;;;11.20;99.90;;;;;;5020730;28;20544;-65
2022/09/17 04:50:21;;;;;;;6.00;1.38;;;11.10;99.90;;;;;;5019886;28;20183;-65
2022/09/17 04:52:47;;;;;;;3.42;1.33;;;11.20;99.90;;;;;;5020046;28;20176;-65
2022/09/17 04:55:14;;;;;;;5.38;1.77;;;11.20;99.90;;;;;;5013616;28;20182;-65
2022/09/17 04:57:48;;;;;;;5.68;1.98;;;11.20;99.90;;;;;;5027070;28;20800;-65
2022/09/17 05:00:16;;;;;;;3.30;1.13;;;11.00;99.90;;;;;;5014549;28;20182;-66
2022/09/17 05:02:44;;;;;;;3.78;1.90;;;11.00;99.90;;;;;;5011580;28;20179;-66
2022/09/17 05:05:09;;;;;;;7.88;1.98;;;11.00;99.90;;;;;;5014410;28;20222;-65
2022/09/17 05:07:38;;;;;;;8.65;2.05;;;10.90;99.90;;;;;;5044513;28;20550;-64
2022/09/17 05:10:04;;;;;;;8.63;2.00;;;10.90;99.90;;;;;;5017243;28;20525;-65
2022/09/17 05:12:29;;;;;;;6.20;1.52;;;11.00;99.90;;;;;;5015577;28;20218;-66
2022/09/17 05:14:55;;;;;;;4.47;1.65;;;11.00;99.90;;;;;;5012642;28;20538;-66
2022/09/17 05:17:21;;;;;;;3.05;1.45;;;10.90;99.90;;;;;;5022809;28;20188;-65
2022/09/17 05:19:46;;;;;;;5.47;1.50;;;11.00;99.90;;;;;;5019063;28;20189;-65
2022/09/17 05:22:12;;;;;;;6.07;2.07;;;11.00;99.90;;;;;;5021181;28;20182;-64
2022/09/17 05:24:38;;;;;;;8.75;1.40;;;11.00;99.90;;;;;;5020865;28;20238;-65
2022/09/17 05:27:05;;;;;;;14.63;3.92;;;11.10;99.90;;;;;;5017717;28;20525;-64
2022/09/17 05:29:31;;;;;;;3.38;1.15;;;11.30;99.90;;;;;;5017604;28;20183;-64
2022/09/17 05:31:57;;;;;;;4.05;1.20;;;11.40;99.90;;;;;;5018678;28;20183;-65
2022/09/17 05:34:23;;;;;;;6.10;1.30;;;11.50;99.90;;;;;;5018314;28;20201;-66
2022/09/17 05:36:48;;;;;;;6.85;2.30;;;11.50;99.90;;;;;;5014122;28;20195;-66
2022/09/17 05:39:14;;;;;;;9.05;3.45;;;11.50;99.90;;;;;;5044696;28;20214;-66
2022/09/17 05:41:40;;;;;;;9.90;5.05;;;11.50;99.90;;;;;;5025802;28;20182;-66
2022/09/17 05:44:05;;;;;;;10.13;5.40;;;11.40;99.90;;;;;;5047635;28;20570;-65
2022/09/17 05:46:31;;;;;;;9.13;5.20;;;11.40;99.90;;;;;;5020024;28;20194;-65
2022/09/17 05:48:57;;;;;;;8.77;3.00;;;11.40;99.90;;;;;;5029727;28;20616;-65
2022/09/17 05:51:23;;;;;;;9.80;2.33;;;11.50;99.90;;;;;;5028503;28;20187;-65
2022/09/17 05:53:49;;;;;;;2.28;1.50;;;11.50;99.90;;;;;;5019205;28;20189;-65
2022/09/17 05:56:14;;;;;;;5.05;1.60;;;11.50;99.90;;;;;;5024546;28;20198;-65
2022/09/17 05:58:40;;;;;;;2.10;1.92;;;11.50;99.90;;;;;;5024385;28;20640;-65
2022/09/17 06:01:06;;;;;;;5.75;1.17;;;11.70;99.90;;;;;;5022383;28;20183;-65
2022/09/17 06:03:32;;;;;;;8.82;2.38;;;11.80;99.90;;;;;;5022181;28;20215;-65
2022/09/17 06:05:58;;;;;;;4.45;1.10;;;11.90;99.90;;;;;;5021130;28;20187;-66
2022/09/17 06:08:26;;;;;;;3.10;1.67;;;12.00;99.90;;;;;;5018993;28;20599;-66
2022/09/17 06:10:52;;;;;;;2.30;1.05;;;12.00;99.90;;;;;;5021567;28;20204;-66
2022/09/17 06:13:18;;;;;;;6.60;1.40;;;12.00;99.90;;;;;;5030352;28;20652;-65
2022/09/17 06:15:53;;;;;;;8.80;1.92;;;12.00;99.90;;;;;;5017331;28;20182;-65
2022/09/17 06:18:19;;;;;;;5.85;1.45;;;12.10;99.90;;;;;;5025433;28;20186;-65
2022/09/17 06:20:53;;;;;;;3.30;1.38;;;12.10;99.90;;;;;;5027126;28;20183;-66
2022/09/17 06:23:19;;;;;;;7.03;1.42;;;12.10;99.90;;;;;;5034706;28;20689;-65
2022/09/17 06:25:54;;;;;;;3.88;1.42;;;12.00;99.90;;;;;;5018894;28;20262;-66
2022/09/17 06:28:20;;;;;;;2.40;1.67;;;12.00;99.90;;;;;;5025146;28;20182;-65
2022/09/17 06:30:46;;;;;;;1.83;1.08;;;11.90;99.90;;;;;;5027680;28;20602;-65
2022/09/17 06:33:12;;;;;;;6.80;2.17;;;12.00;99.90;;;;;;5052225;28;20183;-66
2022/09/17 06:35:37;;;;;;;8.02;1.80;;;12.00;99.90;;;;;;5025669;28;20179;-65
2022/09/17 06:38:04;;;;;;;3.55;1.27;;;12.20;99.90;;;;;;5028772;28;20237;-65
2022/09/17 06:40:30;;;;;;;1.30;1.00;;;12.40;99.90;;;;;;5015495;28;20407;-66
2022/09/17 06:42:59;;;;;;;5.28;1.33;;;12.50;99.90;;;;;;5015188;28;20634;-66
2022/09/17 06:45:27;;;;;;;11.05;1.67;;;12.60;99.90;;;;;;5022992;28;20246;-66
2022/09/17 06:47:53;;;;;;;5.10;1.20;;;12.70;99.90;;;;;;5020343;28;20196;-66
2022/09/17 06:50:19;;;;;;;3.53;1.10;;;12.80;99.90;;;;;;5015478;28;20182;-65
2022/09/17 06:53:02;;;;;;;3.95;1.75;;;12.90;99.90;;;;;;5019624;28;20191;-66
2022/09/17 06:55:28;;;;;;;5.72;1.02;;;13.10;99.90;;;;;;5010563;28;20180;-66
2022/09/17 06:57:58;;;;;;;2.22;1.20;;;13.20;99.90;;;;;;4997712;28;20572;-66
2022/09/17 07:00:23;;;;;;;5.50;2.60;;;13.30;99.90;;;;;;5034111;28;20631;-66
2022/09/17 07:02:56;;;;;;;4.05;2.13;;;13.60;99.90;;;;;;5024683;28;20182;-66
2022/09/17 07:05:23;;;;;;;0.80;0.70;;;13.60;99.90;;;;;;5026016;28;20280;-66
2022/09/17 07:07:49;;;;;;;0.85;0.57;;;13.70;99.90;;;;;;5018782;28;20269;-66
2022/09/17 07:10:15;;;;;;;10.55;4.53;;;13.80;99.90;;;;;;5023708;28;20209;-66
2022/09/17 07:12:40;;;;;;;5.30;0.90;;;13.80;99.90;;;;;;5012856;28;20269;-67
2022/09/17 07:15:07;;;;;;;3.58;1.23;;;13.60;99.90;;;;;;5014437;28;20203;-67
2022/09/17 07:17:33;;;;;;;5.72;1.48;;;13.50;99.90;;;;;;5017983;28;20649;-66
2022/09/17 07:19:59;;;;;;;1.45;0.93;;;13.40;99.90;;;;;;5027771;28;20191;-66
2022/09/17 07:22:24;;;;;;;5.30;1.23;;;13.40;99.90;;;;;;5014590;28;20512;-66
2022/09/17 07:24:50;;;;;;;3.63;1.27;;;13.30;99.90;;;;;;5031831;28;20206;-66
2022/09/17 07:27:15;;;;;;;3.95;1.17;;;13.30;99.90;;;;;;5014442;28;20199;-66
2022/09/17 07:29:41;;;;;;;1.40;0.90;;;13.40;99.90;;;;;;5021422;28;20245;-66
2022/09/17 07:32:07;;;;;;;4.93;0.80;;;13.50;99.90;;;;;;5026720;28;20187;-66
2022/09/17 07:34:32;;;;;;;3.55;1.48;;;13.50;99.90;;;;;;5023405;28;20194;-66
2022/09/17 07:36:58;;;;;;;1.20;1.08;;;13.60;99.90;;;;;;5014643;28;20211;-66
2022/09/17 07:39:24;;;;;;;7.07;0.95;;;13.60;99.90;;;;;;5013284;28;20188;-66
2022/09/17 07:41:49;;;;;;;2.92;1.13;;;13.50;99.90;;;;;;5018470;28;20644;-66
2022/09/17 07:44:15;;;;;;;2.40;0.93;;;13.40;99.90;;;;;;5024248;28;20286;-66
2022/09/17 07:46:40;;;;;;;4.10;1.63;;;13.30;99.90;;;;;;5017693;28;20583;-66
2022/09/17 07:49:06;;;;;;;10.68;3.05;;;13.40;99.90;;;;;;5022248;28;20187;-66
2022/09/17 07:51:32;;;;;;;6.18;1.35;;;13.50;99.90;;;;;;5023136;28;20201;-67
2022/09/17 07:53:58;;;;;;;2.38;0.82;;;13.60;99.90;;;;;;5048594;28;20245;-66
2022/09/17 07:56:25;;;;;;;2.05;0.85;;;13.60;99.90;;;;;;5030006;28;20183;-66
2022/09/17 07:58:51;;;;;;;3.10;2.38;;;13.50;99.90;;;;;;5024386;28;20190;-66
2022/09/17 08:01:19;;;;;;;7.57;3.30;;;13.40;99.90;;;;;;5013655;28;20211;-66
2022/09/17 08:03:50;;;;;;;10.70;2.53;;;13.30;99.90;;;;;;5013593;28;20298;-66
2022/09/17 08:06:21;;;;;;;8.45;1.55;;;13.30;99.90;;;;;;5021026;28;20182;-66
2022/09/17 08:08:47;;;;;;;5.03;1.70;;;13.20;99.90;;;;;;5028282;28;20191;-66
2022/09/17 08:11:16;;;;;;;5.85;2.15;;;13.30;99.90;;;;;;5031210;28;20214;-66
2022/09/17 08:13:42;;;;;;;1.63;1.05;;;13.50;99.90;;;;;;5018760;28;20282;-67
2022/09/17 08:16:12;;;;;;;1.45;0.82;;;13.80;99.90;;;;;;5019636;28;20357;-67
2022/09/17 08:18:38;;;;;;;3.40;1.08;;;13.80;99.90;;;;;;5025135;28;20179;-67
2022/09/17 08:21:06;;;;;;;9.00;1.98;;;13.90;99.90;;;;;;5028261;28;20175;-66
2022/09/17 08:23:35;;;;;;;4.32;1.52;;;13.90;99.90;;;;;;5021869;28;20213;-67
2022/09/17 08:26:01;;;;;;;5.90;2.15;;;13.90;99.90;;;;;;5017168;28;20183;-67
2022/09/17 08:28:29;;;;;;;1.70;1.38;;;13.80;99.90;;;;;;5013582;28;20179;-67
2022/09/17 08:31:07;;;;;;;5.63;1.52;;;13.80;99.90;;;;;;5013303;28;20187;-66
2022/09/17 08:33:34;;;;;;;3.40;0.88;;;13.80;99.90;;;;;;5013589;28;20186;-66
2022/09/17 08:36:00;;;;;;;2.70;1.50;;;13.90;99.90;;;;;;5013149;28;20660;-66
2022/09/17 08:38:27;;;;;;;1.65;1.33;;;14.10;99.90;;;;;;5019866;28;20206;-66
2022/09/17 08:41:09;;;;;;;1.40;1.30;;;14.30;99.90;;;;;;5028870;28;20232;-67
2022/09/17 08:43:41;;;;;;;3.55;1.55;;;14.40;99.90;;;;;;5015646;28;20203;-66
2022/09/17 08:46:09;;;;;;;1.80;1.27;;;14.60;99.90;;;;;;5020744;28;20182;-66
2022/09/17 08:49:10;;;;;;;4.82;1.80;;;14.80;99.90;;;;;;5016888;28;20171;-66
2022/09/17 08:51:55;;;;;;;3.47;0.82;;;15.10;99.90;;;;;;5012260;28;20195;-67
2022/09/17 08:54:27;;;;;;;10.73;1.58;;;15.60;99.90;;;;;;5016873;28;20254;-66
2022/09/17 08:57:09;;;;;;;3.13;1.33;;;15.90;99.90;;;;;;5013094;28;20179;-67
2022/09/17 08:59:58;;;;;;;1.90;1.30;;;15.90;99.90;;;;;;5028472;28;20185;-67
2022/09/17 09:02:50;;;;;;;3.25;1.77;;;15.40;99.90;;;;;;5022701;28;20249;-68
2022/09/17 09:05:45;;;;;;;4.82;1.77;;;15.10;99.90;;;;;;5012806;28;20210;-68
2022/09/17 09:08:39;;;;;;;4.80;1.13;;;14.60;99.90;;;;;;5021529;28;20190;-67
2022/09/17 09:11:21;;;;;;;3.97;1.25;;;14.30;99.90;;;;;;5018083;28;20195;-66
2022/09/17 09:13:50;;;;;;;16.73;2.55;;;14.10;99.90;;;;;;5013266;28;20237;-66
2022/09/17 09:16:25;;;;;;;7.78;2.22;;;13.90;99.90;;;;;;5024773;28;20170;-66
2022/09/17 09:18:54;;;;;;;7.60;2.83;;;13.90;99.90;;;;;;5030973;28;20183;-66
2022/09/17 09:21:38;;;;;;;3.63;1.17;;;13.90;99.90;;;;;;5022993;28;20651;-66
2022/09/17 09:24:13;;;;;;;3.53;1.52;;;14.00;99.90;;;;;;5017621;28;20679;-66
2022/09/17 09:26:52;;;;;;;2.53;1.35;;;14.10;99.90;;;;;;5017568;28;20185;-66
2022/09/17 09:29:43;;;;;;;4.97;1.13;;;14.40;99.90;;;;;;5017875;28;20180;-66
2022/09/17 09:32:51;;;;;;;3.67;1.10;;;14.60;99.90;;;;;;5035841;28;20178;-66
2022/09/17 09:35:26;;;;;;;6.70;1.90;;;14.80;99.90;;;;;;5024241;28;20186;-66
2022/09/17 09:38:23;;;;;;;3.63;1.08;;;15.20;99.90;;;;;;5021481;28;20270;-66
2022/09/17 09:41:07;;;;;;;1.10;1.00;;;15.60;99.90;;;;;;5023400;28;20278;-66
2022/09/17 09:43:40;;;;;;;2.83;1.40;;;15.50;99.90;;;;;;5019658;28;20198;-66
2022/09/17 09:46:28;;;;;;;5.82;1.27;;;15.40;99.90;;;;;;5033814;28;20209;-65
2022/09/17 09:49:21;;;;;;;0.70;0.50;;;15.40;99.90;;;;;;5020737;28;20183;-67
2022/09/17 09:52:02;;;;;;;1.85;0.85;;;15.40;99.90;;;;;;5018330;28;20190;-67
2022/09/17 09:54:52;;;;;;;3.13;1.13;;;15.30;99.90;;;;;;5026833;28;20187;-68
2022/09/17 09:57:30;;;;;;;1.30;0.60;;;15.10;99.90;;;;;;5038684;28;20175;-67
2022/09/17 10:00:31;;;;;;;2.40;0.95;;;14.80;99.90;;;;;;5018134;28;20259;-67
2022/09/17 10:03:20;;;;;;;3.00;0.70;;;14.90;99.90;;;;;;5017729;28;20186;-67
2022/09/17 10:06:09;;;;;;;0.85;0.65;;;14.60;99.90;;;;;;5014651;28;20191;-67
2022/09/17 10:08:38;;;;;;;0.63;0.50;;;14.60;99.90;;;;;;5039826;28;20171;-66
2022/09/17 10:11:15;;;;;;;2.20;0.40;;;14.40;99.90;;;;;;5034443;28;20198;-66
2022/09/17 10:13:41;;;;;;;4.13;0.95;;;14.70;99.90;;;;;;5028086;28;20547;-66
2022/09/17 10:16:24;;;;;;;2.05;0.60;;;15.10;99.90;;;;;;5033920;28;20186;-66
2022/09/17 10:19:24;;;;;;;1.45;0.50;;;15.20;99.90;;;;;;5016183;28;20249;-66
2022/09/17 10:21:50;;;;;;;0.65;0.65;;;15.20;99.90;;;;;;5019866;28;20183;-66
2022/09/17 10:24:24;;;;;;;5.72;1.38;;;15.10;99.90;;;;;;5043618;28;20206;-66
2022/09/17 10:26:50;;;;;;;4.80;0.63;;;15.00;99.90;;;;;;5017489;28;20175;-66
2022/09/17 10:29:19;;;;;;;2.58;0.70;;;14.80;99.90;;;;;;5018195;28;20260;-67
2022/09/17 10:31:48;;;;;;;1.45;0.57;;;14.80;99.90;;;;;;5015864;28;20206;-67
2022/09/17 10:34:29;;;;;;;1.88;1.33;;;14.60;99.90;;;;;;5010992;28;20186;-67
2022/09/17 10:36:56;;;;;;;3.70;2.03;;;14.40;99.90;;;;;;5015039;28;20187;-67
2022/09/17 10:39:45;;;;;;;2.63;2.38;;;14.00;99.90;;;;;;5019527;28;20187;-67
2022/09/17 10:42:11;;;;;;;1.27;1.10;;;13.90;99.90;;;;;;5017111;28;20218;-66
2022/09/17 10:44:37;;;;;;;1.65;0.73;;;14.00;99.90;;;;;;5016768;28;20238;-66
2022/09/17 10:47:17;;;;;;;2.20;0.65;;;14.20;99.90;;;;;;5013959;28;20179;-66
2022/09/17 10:49:48;;;;;;;0.75;0.52;;;14.40;99.90;;;;;;5026899;28;20210;-66
2022/09/17 10:52:31;;;;;;;0.55;0.50;;;14.60;99.90;;;;;;5030414;28;20211;-66
2022/09/17 10:55:04;;;;;;;1.35;0.57;;;14.90;99.90;;;;;;5027925;28;20240;-67
2022/09/17 10:57:32;;;;;;;0.85;0.75;;;15.40;99.90;;;;;;5027646;28;20186;-66
2022/09/17 11:00:04;;;;;;;5.50;1.33;;;15.70;99.90;;;;;;5024480;28;20227;-66
2022/09/17 11:03:11;;;;;;;1.58;1.10;;;15.80;99.90;;;;;;5033008;28;20233;-66
2022/09/17 11:05:52;;;;;;;1.35;0.90;;;16.00;99.90;;;;;;5016348;28;20191;-66
2022/09/17 11:08:56;;;;;;;1.40;1.10;;;16.00;99.90;;;;;;5030682;28;20191;-66
2022/09/17 11:11:54;;;;;;;1.42;0.95;;;15.70;99.90;;;;;;5022639;28;20166;-66
2022/09/17 11:14:25;;;;;;;5.57;1.60;;;15.90;99.90;;;;;;5016924;28;20736;-65
2022/09/17 11:17:06;;;;;;;6.90;1.35;;;15.60;99.90;;;;;;5029212;28;20210;-66
2022/09/17 11:19:44;;;;;;;5.63;1.52;;;15.30;99.90;;;;;;5030944;28;20308;-66
2022/09/17 11:22:24;;;;;;;3.00;1.67;;;15.00;99.90;;;;;;5026672;28;20186;-66
2022/09/17 11:25:19;;;;;;;2.15;0.90;;;14.80;99.90;;;;;;5020402;28;20700;-67
2022/09/17 11:27:54;;;;;;;0.82;0.60;;;14.50;99.90;;;;;;5029760;28;20186;-66
2022/09/17 11:30:22;;;;;;;3.15;0.65;;;14.10;99.90;;;;;;5024820;28;20619;-66
2022/09/17 11:33:23;;;;;;;2.35;0.85;;;14.00;99.90;;;;;;5032673;28;20257;-66
2022/09/17 11:35:59;;;;;;;2.70;1.38;;;14.00;99.90;;;;;;5023139;28;20257;-66
2022/09/17 11:38:50;;;;;;;0.80;0.80;;;14.30;99.90;;;;;;5028315;28;20179;-66
2022/09/17 11:41:21;;;;;;;1.60;0.63;;;14.60;99.90;;;;;;5031782;28;20592;-66
2022/09/17 11:44:07;;;;;;;0.88;0.60;;;14.90;99.90;;;;;;5021089;28;20241;-66
2022/09/17 11:46:44;;;;;;;4.43;1.27;;;15.30;99.90;;;;;;5024722;28;20678;-65
2022/09/17 11:49:34;;;;;;;3.63;0.60;;;15.50;99.90;;;;;;5020760;28;20269;-65
2022/09/17 11:52:30;;;;;;;3.47;1.02;;;15.50;99.90;;;;;;5023011;28;20194;-65
2022/09/17 11:55:23;;;;;;;1.95;0.80;;;15.60;99.90;;;;;;5015525;28;20197;-65
2022/09/17 11:57:56;;;;;;;0.90;0.75;;;16.00;99.90;;;;;;5020954;28;20167;-65
2022/09/17 12:00:22;;;;;;;1.42;1.00;;;16.30;99.90;;;;;;5020485;28;20198;-65
2022/09/17 12:03:00;;;;;;;0.80;0.50;;;16.50;99.90;;;;;;5024730;28;20259;-65
2022/09/17 12:05:28;;;;;;;1.83;0.70;;;16.40;99.90;;;;;;5014799;28;20329;-65
2022/09/17 12:08:15;;;;;;;1.40;1.15;;;16.20;99.90;;;;;;5017500;28;20191;-65
2022/09/17 12:10:52;;;;;;;16.42;2.13;;;16.10;99.90;;;;;;5091812;27;1291107;-66
2022/09/17 12:13:18;;;;;;;3.33;1.08;;;15.90;99.90;;;;;;5122348;27;20270;-66
2022/09/17 12:15:47;;;;;;;2.63;0.88;;;15.90;99.90;;;;;;5140671;27;20214;-66
2022/09/17 12:18:55;;;;;;;4.22;2.45;;;15.80;99.90;;;;;;5112606;28;20237;-66
2022/09/17 12:21:28;;;;;;;1.33;0.80;;;15.70;99.90;;;;;;5108491;27;20183;-66
2022/09/17 12:24:11;;;;;;;3.25;1.23;;;15.70;99.90;;;;;;5135955;27;20322;-66
2022/09/17 12:26:55;;;;;;;1.85;1.70;;;15.80;99.90;;;;;;5111589;27;20207;-66
2022/09/17 12:29:23;;;;;;;3.80;1.20;;;15.70;99.90;;;;;;5096820;28;20556;-65
2022/09/17 12:32:08;;;;;;;8.80;1.65;;;15.70;99.90;;;;;;5126563;27;20195;-66
2022/09/17 12:35:07;;;;;;;4.85;0.90;;;15.70;99.90;;;;;;5122381;27;20183;-66
2022/09/17 12:37:51;;;;;;;8.35;1.35;;;15.80;99.90;;;;;;5108007;28;20176;-66
2022/09/17 12:40:29;;;;;;;5.40;1.67;;;16.10;99.90;;;;;;5130786;27;20184;-66
2022/09/17 12:43:01;;;;;;;3.60;1.52;;;16.30;99.90;;;;;;5129863;27;20534;-66
2022/09/17 12:45:36;;;;;;;2.38;1.33;;;16.30;99.90;;;;;;5130727;27;20187;-66
2022/09/17 12:48:41;;;;;;;3.42;1.30;;;16.30;99.90;;;;;;5115736;28;20175;-66
2022/09/17 12:51:43;;;;;;;10.20;1.52;;;16.10;99.90;;;;;;5120301;27;20183;-66
2022/09/17 12:54:15;;;;;;;2.90;1.50;;;15.90;99.90;;;;;;5122694;28;20172;-67
2022/09/17 12:57:03;;;;;;;19.30;2.05;;;15.80;99.90;;;;;;5119011;27;20184;-66
2022/09/17 12:59:32;;;;;;;3.83;2.17;;;15.70;99.90;;;;;;5100441;28;20195;-66
2022/09/17 13:02:02;;;;;;;5.13;1.38;;;15.70;99.90;;;;;;5109907;28;20183;-66
2022/09/17 13:05:14;;;;;;;4.53;1.70;;;15.60;99.90;;;;;;5125242;27;20179;-66
2022/09/17 13:08:33;;;;;;;6.38;1.92;;;15.60;99.90;;;;;;5128574;27;20187;-66
2022/09/17 13:11:18;;;;;;;3.13;1.73;;;15.60;99.90;;;;;;5106574;28;20212;-66
2022/09/17 13:14:08;;;;;;;7.90;1.60;;;15.40;99.90;;;;;;5104553;28;20222;-65
2022/09/17 13:17:01;;;;;;;3.67;1.30;;;15.50;99.90;;;;;;5111661;27;20176;-66
2022/09/17 13:19:42;;;;;;;7.55;1.20;;;15.50;99.90;;;;;;5105867;28;20176;-66